<?xml version="1.0" encoding="UTF-8" standalone="no" ?>
<gpx xmlns="http://www.topografix.com/GPX/1/1" xmlns:xsi="http://www.w3.org/2001/XMLSchema-instance" xsi:schemaLocation="http://www.topografix.com/GPX/1/1 http://www.topografix.com/GPX/1/1/gpx.xsd" version="1.1" creator="VisuGPX - https://www.visugpx.com">
  <metadata>
    <name>Margeriaz 2</name>
    <desc><![CDATA[raquette ski]]></desc>
  </metadata>
  <trk>
    <name><![CDATA[Margeriaz raquette ski pleine lune]]></name>
    <trkseg>
      <trkpt lat="45.63038" lon="6.03413">
        <ele>1871</ele>
        <time>2014-02-11T21:16:44.1Z</time>
      </trkpt>
      <trkpt lat="45.63038" lon="6.03413">
        <ele>1871</ele>
        <time>2014-02-11T21:16:46.1Z</time>
      </trkpt>
      <trkpt lat="45.63038" lon="6.03414">
        <ele>1872</ele>
        <time>2014-02-11T21:16:48.1Z</time>
      </trkpt>
      <trkpt lat="45.6304" lon="6.03417">
        <ele>1873</ele>
        <time>2014-02-11T21:16:51.1Z</time>
      </trkpt>
      <trkpt lat="45.63043" lon="6.03422">
        <ele>1873</ele>
        <time>2014-02-11T21:16:53.1Z</time>
      </trkpt>
      <trkpt lat="45.6305" lon="6.03432">
        <ele>1872</ele>
        <time>2014-02-11T21:16:56.1Z</time>
      </trkpt>
      <trkpt lat="45.63054" lon="6.03443">
        <ele>1870</ele>
        <time>2014-02-11T21:16:58.1Z</time>
      </trkpt>
      <trkpt lat="45.63058" lon="6.03455">
        <ele>1869</ele>
        <time>2014-02-11T21:17:00.1Z</time>
      </trkpt>
      <trkpt lat="45.63063" lon="6.03476">
        <ele>1865</ele>
        <time>2014-02-11T21:17:03.1Z</time>
      </trkpt>
      <trkpt lat="45.63066" lon="6.03492">
        <ele>1862</ele>
        <time>2014-02-11T21:17:05.1Z</time>
      </trkpt>
      <trkpt lat="45.6307" lon="6.03507">
        <ele>1859</ele>
        <time>2014-02-11T21:17:07.1Z</time>
      </trkpt>
      <trkpt lat="45.63078" lon="6.03531">
        <ele>1857</ele>
        <time>2014-02-11T21:17:10.1Z</time>
      </trkpt>
      <trkpt lat="45.63083" lon="6.03545">
        <ele>1855</ele>
        <time>2014-02-11T21:17:12.1Z</time>
      </trkpt>
      <trkpt lat="45.63089" lon="6.03565">
        <ele>1853</ele>
        <time>2014-02-11T21:17:15.1Z</time>
      </trkpt>
      <trkpt lat="45.63093" lon="6.0358">
        <ele>1852</ele>
        <time>2014-02-11T21:17:17.1Z</time>
      </trkpt>
      <trkpt lat="45.63098" lon="6.03604">
        <ele>1850</ele>
        <time>2014-02-11T21:17:20.1Z</time>
      </trkpt>
      <trkpt lat="45.63103" lon="6.03629">
        <ele>1848</ele>
        <time>2014-02-11T21:17:23.1Z</time>
      </trkpt>
      <trkpt lat="45.63109" lon="6.03647">
        <ele>1846</ele>
        <time>2014-02-11T21:17:25.1Z</time>
      </trkpt>
      <trkpt lat="45.63124" lon="6.0367">
        <ele>1843</ele>
        <time>2014-02-11T21:17:28.1Z</time>
      </trkpt>
      <trkpt lat="45.63133" lon="6.03686">
        <ele>1841</ele>
        <time>2014-02-11T21:17:30.1Z</time>
      </trkpt>
      <trkpt lat="45.63144" lon="6.03711">
        <ele>1839</ele>
        <time>2014-02-11T21:17:33.1Z</time>
      </trkpt>
      <trkpt lat="45.63151" lon="6.03735">
        <ele>1838</ele>
        <time>2014-02-11T21:17:36.1Z</time>
      </trkpt>
      <trkpt lat="45.63154" lon="6.03754">
        <ele>1837</ele>
        <time>2014-02-11T21:17:39.1Z</time>
      </trkpt>
      <trkpt lat="45.63156" lon="6.03765">
        <ele>1836</ele>
        <time>2014-02-11T21:17:41.1Z</time>
      </trkpt>
      <trkpt lat="45.6316" lon="6.03783">
        <ele>1836</ele>
        <time>2014-02-11T21:17:44.1Z</time>
      </trkpt>
      <trkpt lat="45.63165" lon="6.03794">
        <ele>1835</ele>
        <time>2014-02-11T21:17:47.1Z</time>
      </trkpt>
      <trkpt lat="45.63173" lon="6.03811">
        <ele>1835</ele>
        <time>2014-02-11T21:17:49.1Z</time>
      </trkpt>
      <trkpt lat="45.63183" lon="6.03823">
        <ele>1834</ele>
        <time>2014-02-11T21:17:52.1Z</time>
      </trkpt>
      <trkpt lat="45.63186" lon="6.0383">
        <ele>1833</ele>
        <time>2014-02-11T21:17:55.1Z</time>
      </trkpt>
      <trkpt lat="45.63186" lon="6.03831">
        <ele>1831</ele>
        <time>2014-02-11T21:17:57.1Z</time>
      </trkpt>
      <trkpt lat="45.63186" lon="6.03832">
        <ele>1830</ele>
        <time>2014-02-11T21:18:00.1Z</time>
      </trkpt>
      <trkpt lat="45.63186" lon="6.03832">
        <ele>1830</ele>
        <time>2014-02-11T21:18:02.1Z</time>
      </trkpt>
      <trkpt lat="45.63187" lon="6.03832">
        <ele>1829</ele>
        <time>2014-02-11T21:18:05.1Z</time>
      </trkpt>
      <trkpt lat="45.63188" lon="6.03834">
        <ele>1830</ele>
        <time>2014-02-11T21:18:08.1Z</time>
      </trkpt>
      <trkpt lat="45.63189" lon="6.03835">
        <ele>1830</ele>
        <time>2014-02-11T21:18:10.1Z</time>
      </trkpt>
      <trkpt lat="45.63195" lon="6.03838">
        <ele>1830</ele>
        <time>2014-02-11T21:18:13.1Z</time>
      </trkpt>
      <trkpt lat="45.63201" lon="6.03843">
        <ele>1829</ele>
        <time>2014-02-11T21:18:15.1Z</time>
      </trkpt>
      <trkpt lat="45.63208" lon="6.03855">
        <ele>1828</ele>
        <time>2014-02-11T21:18:18.1Z</time>
      </trkpt>
      <trkpt lat="45.63215" lon="6.03864">
        <ele>1827</ele>
        <time>2014-02-11T21:18:20.1Z</time>
      </trkpt>
      <trkpt lat="45.63224" lon="6.03883">
        <ele>1824</ele>
        <time>2014-02-11T21:18:23.1Z</time>
      </trkpt>
      <trkpt lat="45.63231" lon="6.03895">
        <ele>1822</ele>
        <time>2014-02-11T21:18:26.1Z</time>
      </trkpt>
      <trkpt lat="45.63243" lon="6.03909">
        <ele>1820</ele>
        <time>2014-02-11T21:18:28.1Z</time>
      </trkpt>
      <trkpt lat="45.63252" lon="6.0392">
        <ele>1818</ele>
        <time>2014-02-11T21:18:30.1Z</time>
      </trkpt>
      <trkpt lat="45.63265" lon="6.0394">
        <ele>1814</ele>
        <time>2014-02-11T21:18:33.1Z</time>
      </trkpt>
      <trkpt lat="45.63275" lon="6.03954">
        <ele>1811</ele>
        <time>2014-02-11T21:18:35.1Z</time>
      </trkpt>
      <trkpt lat="45.63286" lon="6.03969">
        <ele>1806</ele>
        <time>2014-02-11T21:18:37.1Z</time>
      </trkpt>
      <trkpt lat="45.63301" lon="6.03996">
        <ele>1802</ele>
        <time>2014-02-11T21:18:40.1Z</time>
      </trkpt>
      <trkpt lat="45.63312" lon="6.04013">
        <ele>1798</ele>
        <time>2014-02-11T21:18:42.1Z</time>
      </trkpt>
      <trkpt lat="45.63321" lon="6.04029">
        <ele>1794</ele>
        <time>2014-02-11T21:18:44.1Z</time>
      </trkpt>
      <trkpt lat="45.63335" lon="6.04052">
        <ele>1788</ele>
        <time>2014-02-11T21:18:47.1Z</time>
      </trkpt>
      <trkpt lat="45.63347" lon="6.0408">
        <ele>1782</ele>
        <time>2014-02-11T21:18:50.1Z</time>
      </trkpt>
      <trkpt lat="45.63353" lon="6.04108">
        <ele>1779</ele>
        <time>2014-02-11T21:18:53.1Z</time>
      </trkpt>
      <trkpt lat="45.63356" lon="6.04122">
        <ele>1777</ele>
        <time>2014-02-11T21:18:55.1Z</time>
      </trkpt>
      <trkpt lat="45.6336" lon="6.04138">
        <ele>1773</ele>
        <time>2014-02-11T21:18:58.1Z</time>
      </trkpt>
      <trkpt lat="45.63363" lon="6.04154">
        <ele>1772</ele>
        <time>2014-02-11T21:19:01.1Z</time>
      </trkpt>
      <trkpt lat="45.63364" lon="6.04161">
        <ele>1771</ele>
        <time>2014-02-11T21:19:03.1Z</time>
      </trkpt>
      <trkpt lat="45.63363" lon="6.04163">
        <ele>1771</ele>
        <time>2014-02-11T21:19:05.1Z</time>
      </trkpt>
      <trkpt lat="45.63363" lon="6.04163">
        <ele>1771</ele>
        <time>2014-02-11T21:19:08.1Z</time>
      </trkpt>
      <trkpt lat="45.63364" lon="6.04164">
        <ele>1771</ele>
        <time>2014-02-11T21:19:11.1Z</time>
      </trkpt>
      <trkpt lat="45.63364" lon="6.04164">
        <ele>1771</ele>
        <time>2014-02-11T21:19:16.1Z</time>
      </trkpt>
      <trkpt lat="45.63364" lon="6.04165">
        <ele>1771</ele>
        <time>2014-02-11T21:19:18.1Z</time>
      </trkpt>
      <trkpt lat="45.63365" lon="6.04165">
        <ele>1771</ele>
        <time>2014-02-11T21:19:21.1Z</time>
      </trkpt>
      <trkpt lat="45.63365" lon="6.04164">
        <ele>1771</ele>
        <time>2014-02-11T21:19:24.1Z</time>
      </trkpt>
      <trkpt lat="45.63365" lon="6.04164">
        <ele>1771</ele>
        <time>2014-02-11T21:19:27.1Z</time>
      </trkpt>
      <trkpt lat="45.63365" lon="6.04164">
        <ele>1771</ele>
        <time>2014-02-11T21:19:29.1Z</time>
      </trkpt>
      <trkpt lat="45.63365" lon="6.04164">
        <ele>1771</ele>
        <time>2014-02-11T21:19:32.1Z</time>
      </trkpt>
      <trkpt lat="45.63365" lon="6.04164">
        <ele>1771</ele>
        <time>2014-02-11T21:19:35.1Z</time>
      </trkpt>
      <trkpt lat="45.63365" lon="6.04165">
        <ele>1770</ele>
        <time>2014-02-11T21:19:39.1Z</time>
      </trkpt>
      <trkpt lat="45.63364" lon="6.04165">
        <ele>1771</ele>
        <time>2014-02-11T21:19:44.1Z</time>
      </trkpt>
      <trkpt lat="45.63364" lon="6.04165">
        <ele>1770</ele>
        <time>2014-02-11T21:19:46.1Z</time>
      </trkpt>
      <trkpt lat="45.63364" lon="6.04164">
        <ele>1770</ele>
        <time>2014-02-11T21:19:49.1Z</time>
      </trkpt>
      <trkpt lat="45.63364" lon="6.04164">
        <ele>1770</ele>
        <time>2014-02-11T21:19:51.1Z</time>
      </trkpt>
      <trkpt lat="45.63364" lon="6.04164">
        <ele>1770</ele>
        <time>2014-02-11T21:19:55.1Z</time>
      </trkpt>
      <trkpt lat="45.63364" lon="6.04164">
        <ele>1771</ele>
        <time>2014-02-11T21:19:58.1Z</time>
      </trkpt>
      <trkpt lat="45.63363" lon="6.04164">
        <ele>1771</ele>
        <time>2014-02-11T21:20:00.1Z</time>
      </trkpt>
      <trkpt lat="45.63363" lon="6.04164">
        <ele>1771</ele>
        <time>2014-02-11T21:20:03.1Z</time>
      </trkpt>
      <trkpt lat="45.63363" lon="6.04163">
        <ele>1771</ele>
        <time>2014-02-11T21:20:06.1Z</time>
      </trkpt>
      <trkpt lat="45.63363" lon="6.04163">
        <ele>1772</ele>
        <time>2014-02-11T21:20:08.1Z</time>
      </trkpt>
      <trkpt lat="45.63363" lon="6.04162">
        <ele>1771</ele>
        <time>2014-02-11T21:20:11.1Z</time>
      </trkpt>
      <trkpt lat="45.63363" lon="6.04162">
        <ele>1771</ele>
        <time>2014-02-11T21:20:18.1Z</time>
      </trkpt>
      <trkpt lat="45.63362" lon="6.04162">
        <ele>1770</ele>
        <time>2014-02-11T21:20:21.1Z</time>
      </trkpt>
      <trkpt lat="45.63362" lon="6.04162">
        <ele>1770</ele>
        <time>2014-02-11T21:20:24.1Z</time>
      </trkpt>
      <trkpt lat="45.63362" lon="6.04162">
        <ele>1770</ele>
        <time>2014-02-11T21:20:28.1Z</time>
      </trkpt>
      <trkpt lat="45.63362" lon="6.04162">
        <ele>1771</ele>
        <time>2014-02-11T21:20:32.1Z</time>
      </trkpt>
      <trkpt lat="45.63362" lon="6.04162">
        <ele>1771</ele>
        <time>2014-02-11T21:20:34.1Z</time>
      </trkpt>
      <trkpt lat="45.63362" lon="6.04162">
        <ele>1770</ele>
        <time>2014-02-11T21:20:39.1Z</time>
      </trkpt>
      <trkpt lat="45.63362" lon="6.04161">
        <ele>1770</ele>
        <time>2014-02-11T21:20:44.1Z</time>
      </trkpt>
      <trkpt lat="45.63362" lon="6.04161">
        <ele>1770</ele>
        <time>2014-02-11T21:20:47.1Z</time>
      </trkpt>
      <trkpt lat="45.63362" lon="6.04161">
        <ele>1770</ele>
        <time>2014-02-11T21:20:49.1Z</time>
      </trkpt>
      <trkpt lat="45.63362" lon="6.04161">
        <ele>1771</ele>
        <time>2014-02-11T21:20:54.1Z</time>
      </trkpt>
      <trkpt lat="45.63363" lon="6.04161">
        <ele>1770</ele>
        <time>2014-02-11T21:20:56.1Z</time>
      </trkpt>
      <trkpt lat="45.63363" lon="6.04161">
        <ele>1771</ele>
        <time>2014-02-11T21:20:58.1Z</time>
      </trkpt>
      <trkpt lat="45.63363" lon="6.04161">
        <ele>1771</ele>
        <time>2014-02-11T21:21:01.1Z</time>
      </trkpt>
      <trkpt lat="45.63363" lon="6.04161">
        <ele>1771</ele>
        <time>2014-02-11T21:21:04.1Z</time>
      </trkpt>
      <trkpt lat="45.63364" lon="6.04161">
        <ele>1771</ele>
        <time>2014-02-11T21:21:06.1Z</time>
      </trkpt>
      <trkpt lat="45.63364" lon="6.04161">
        <ele>1771</ele>
        <time>2014-02-11T21:21:09.1Z</time>
      </trkpt>
      <trkpt lat="45.63365" lon="6.04161">
        <ele>1771</ele>
        <time>2014-02-11T21:21:12.1Z</time>
      </trkpt>
      <trkpt lat="45.63365" lon="6.04161">
        <ele>1771</ele>
        <time>2014-02-11T21:21:14.1Z</time>
      </trkpt>
      <trkpt lat="45.63365" lon="6.0416">
        <ele>1771</ele>
        <time>2014-02-11T21:21:17.1Z</time>
      </trkpt>
      <trkpt lat="45.63365" lon="6.0416">
        <ele>1771</ele>
        <time>2014-02-11T21:21:28.1Z</time>
      </trkpt>
      <trkpt lat="45.63366" lon="6.0416">
        <ele>1771</ele>
        <time>2014-02-11T21:21:30.1Z</time>
      </trkpt>
      <trkpt lat="45.63366" lon="6.0416">
        <ele>1771</ele>
        <time>2014-02-11T21:21:33.1Z</time>
      </trkpt>
      <trkpt lat="45.63366" lon="6.0416">
        <ele>1771</ele>
        <time>2014-02-11T21:21:36.1Z</time>
      </trkpt>
      <trkpt lat="45.63366" lon="6.0416">
        <ele>1770</ele>
        <time>2014-02-11T21:21:38.1Z</time>
      </trkpt>
      <trkpt lat="45.63366" lon="6.0416">
        <ele>1771</ele>
        <time>2014-02-11T21:21:41.1Z</time>
      </trkpt>
      <trkpt lat="45.63366" lon="6.0416">
        <ele>1771</ele>
        <time>2014-02-11T21:21:44.1Z</time>
      </trkpt>
      <trkpt lat="45.63366" lon="6.0416">
        <ele>1771</ele>
        <time>2014-02-11T21:21:47.1Z</time>
      </trkpt>
      <trkpt lat="45.63366" lon="6.0416">
        <ele>1771</ele>
        <time>2014-02-11T21:21:50.1Z</time>
      </trkpt>
      <trkpt lat="45.63365" lon="6.0416">
        <ele>1771</ele>
        <time>2014-02-11T21:21:54.1Z</time>
      </trkpt>
      <trkpt lat="45.63365" lon="6.0416">
        <ele>1771</ele>
        <time>2014-02-11T21:21:56.1Z</time>
      </trkpt>
      <trkpt lat="45.63365" lon="6.0416">
        <ele>1771</ele>
        <time>2014-02-11T21:21:58.1Z</time>
      </trkpt>
      <trkpt lat="45.63365" lon="6.0416">
        <ele>1771</ele>
        <time>2014-02-11T21:22:02.1Z</time>
      </trkpt>
      <trkpt lat="45.63365" lon="6.0416">
        <ele>1771</ele>
        <time>2014-02-11T21:22:06.1Z</time>
      </trkpt>
      <trkpt lat="45.63364" lon="6.04159">
        <ele>1771</ele>
        <time>2014-02-11T21:22:10.1Z</time>
      </trkpt>
      <trkpt lat="45.63364" lon="6.04159">
        <ele>1771</ele>
        <time>2014-02-11T21:22:13.1Z</time>
      </trkpt>
      <trkpt lat="45.63364" lon="6.04159">
        <ele>1771</ele>
        <time>2014-02-11T21:22:17.1Z</time>
      </trkpt>
      <trkpt lat="45.63364" lon="6.04159">
        <ele>1771</ele>
        <time>2014-02-11T21:22:19.1Z</time>
      </trkpt>
      <trkpt lat="45.63364" lon="6.0416">
        <ele>1771</ele>
        <time>2014-02-11T21:22:22.1Z</time>
      </trkpt>
      <trkpt lat="45.63364" lon="6.0416">
        <ele>1771</ele>
        <time>2014-02-11T21:22:25.1Z</time>
      </trkpt>
      <trkpt lat="45.63364" lon="6.04161">
        <ele>1770</ele>
        <time>2014-02-11T21:22:28.1Z</time>
      </trkpt>
      <trkpt lat="45.63364" lon="6.04161">
        <ele>1770</ele>
        <time>2014-02-11T21:22:30.1Z</time>
      </trkpt>
      <trkpt lat="45.63364" lon="6.04162">
        <ele>1770</ele>
        <time>2014-02-11T21:22:33.1Z</time>
      </trkpt>
      <trkpt lat="45.63363" lon="6.04162">
        <ele>1770</ele>
        <time>2014-02-11T21:22:36.1Z</time>
      </trkpt>
      <trkpt lat="45.63363" lon="6.04163">
        <ele>1770</ele>
        <time>2014-02-11T21:22:39.1Z</time>
      </trkpt>
      <trkpt lat="45.63363" lon="6.04163">
        <ele>1771</ele>
        <time>2014-02-11T21:22:41.1Z</time>
      </trkpt>
      <trkpt lat="45.63363" lon="6.04163">
        <ele>1770</ele>
        <time>2014-02-11T21:22:43.1Z</time>
      </trkpt>
      <trkpt lat="45.63362" lon="6.04163">
        <ele>1770</ele>
        <time>2014-02-11T21:22:49.1Z</time>
      </trkpt>
      <trkpt lat="45.63362" lon="6.04163">
        <ele>1770</ele>
        <time>2014-02-11T21:22:51.1Z</time>
      </trkpt>
      <trkpt lat="45.63362" lon="6.04163">
        <ele>1770</ele>
        <time>2014-02-11T21:22:54.1Z</time>
      </trkpt>
      <trkpt lat="45.63361" lon="6.04164">
        <ele>1770</ele>
        <time>2014-02-11T21:22:57.1Z</time>
      </trkpt>
      <trkpt lat="45.63361" lon="6.04164">
        <ele>1770</ele>
        <time>2014-02-11T21:23:00.1Z</time>
      </trkpt>
      <trkpt lat="45.63361" lon="6.04165">
        <ele>1770</ele>
        <time>2014-02-11T21:23:03.1Z</time>
      </trkpt>
      <trkpt lat="45.63361" lon="6.04165">
        <ele>1770</ele>
        <time>2014-02-11T21:23:06.1Z</time>
      </trkpt>
      <trkpt lat="45.63361" lon="6.04165">
        <ele>1770</ele>
        <time>2014-02-11T21:23:09.1Z</time>
      </trkpt>
      <trkpt lat="45.63361" lon="6.04164">
        <ele>1770</ele>
        <time>2014-02-11T21:23:11.1Z</time>
      </trkpt>
      <trkpt lat="45.63361" lon="6.04164">
        <ele>1770</ele>
        <time>2014-02-11T21:23:17.1Z</time>
      </trkpt>
      <trkpt lat="45.63361" lon="6.04164">
        <ele>1769</ele>
        <time>2014-02-11T21:23:21.1Z</time>
      </trkpt>
      <trkpt lat="45.63361" lon="6.04164">
        <ele>1770</ele>
        <time>2014-02-11T21:23:24.1Z</time>
      </trkpt>
      <trkpt lat="45.63361" lon="6.04163">
        <ele>1769</ele>
        <time>2014-02-11T21:23:27.1Z</time>
      </trkpt>
      <trkpt lat="45.63361" lon="6.04163">
        <ele>1769</ele>
        <time>2014-02-11T21:23:29.1Z</time>
      </trkpt>
      <trkpt lat="45.63362" lon="6.04163">
        <ele>1770</ele>
        <time>2014-02-11T21:23:32.1Z</time>
      </trkpt>
      <trkpt lat="45.63362" lon="6.04163">
        <ele>1770</ele>
        <time>2014-02-11T21:23:34.1Z</time>
      </trkpt>
      <trkpt lat="45.63362" lon="6.04163">
        <ele>1770</ele>
        <time>2014-02-11T21:23:37.1Z</time>
      </trkpt>
      <trkpt lat="45.63361" lon="6.04162">
        <ele>1769</ele>
        <time>2014-02-11T21:23:42.1Z</time>
      </trkpt>
      <trkpt lat="45.63361" lon="6.04163">
        <ele>1770</ele>
        <time>2014-02-11T21:23:45.1Z</time>
      </trkpt>
      <trkpt lat="45.63361" lon="6.04163">
        <ele>1770</ele>
        <time>2014-02-11T21:23:47.1Z</time>
      </trkpt>
      <trkpt lat="45.63361" lon="6.04163">
        <ele>1770</ele>
        <time>2014-02-11T21:23:50.1Z</time>
      </trkpt>
      <trkpt lat="45.63361" lon="6.04163">
        <ele>1770</ele>
        <time>2014-02-11T21:23:53.1Z</time>
      </trkpt>
      <trkpt lat="45.63361" lon="6.04163">
        <ele>1770</ele>
        <time>2014-02-11T21:23:58.1Z</time>
      </trkpt>
      <trkpt lat="45.63361" lon="6.04163">
        <ele>1769</ele>
        <time>2014-02-11T21:24:00.1Z</time>
      </trkpt>
      <trkpt lat="45.63361" lon="6.04163">
        <ele>1769</ele>
        <time>2014-02-11T21:24:03.1Z</time>
      </trkpt>
      <trkpt lat="45.63361" lon="6.04164">
        <ele>1769</ele>
        <time>2014-02-11T21:24:05.1Z</time>
      </trkpt>
      <trkpt lat="45.63361" lon="6.04164">
        <ele>1769</ele>
        <time>2014-02-11T21:24:09.1Z</time>
      </trkpt>
      <trkpt lat="45.63361" lon="6.04164">
        <ele>1769</ele>
        <time>2014-02-11T21:24:13.1Z</time>
      </trkpt>
      <trkpt lat="45.63361" lon="6.04164">
        <ele>1769</ele>
        <time>2014-02-11T21:24:16.1Z</time>
      </trkpt>
      <trkpt lat="45.63362" lon="6.04164">
        <ele>1769</ele>
        <time>2014-02-11T21:24:19.1Z</time>
      </trkpt>
      <trkpt lat="45.63362" lon="6.04164">
        <ele>1770</ele>
        <time>2014-02-11T21:24:22.1Z</time>
      </trkpt>
      <trkpt lat="45.63362" lon="6.04164">
        <ele>1770</ele>
        <time>2014-02-11T21:24:32.1Z</time>
      </trkpt>
      <trkpt lat="45.63362" lon="6.04164">
        <ele>1770</ele>
        <time>2014-02-11T21:24:34.1Z</time>
      </trkpt>
      <trkpt lat="45.63362" lon="6.04164">
        <ele>1770</ele>
        <time>2014-02-11T21:24:39.1Z</time>
      </trkpt>
      <trkpt lat="45.63362" lon="6.04164">
        <ele>1769</ele>
        <time>2014-02-11T21:24:41.1Z</time>
      </trkpt>
      <trkpt lat="45.63361" lon="6.04164">
        <ele>1769</ele>
        <time>2014-02-11T21:24:46.1Z</time>
      </trkpt>
      <trkpt lat="45.63361" lon="6.04164">
        <ele>1769</ele>
        <time>2014-02-11T21:24:48.1Z</time>
      </trkpt>
      <trkpt lat="45.63361" lon="6.04164">
        <ele>1769</ele>
        <time>2014-02-11T21:24:52.1Z</time>
      </trkpt>
      <trkpt lat="45.63361" lon="6.04164">
        <ele>1770</ele>
        <time>2014-02-11T21:24:54.1Z</time>
      </trkpt>
      <trkpt lat="45.63361" lon="6.04163">
        <ele>1770</ele>
        <time>2014-02-11T21:24:59.1Z</time>
      </trkpt>
      <trkpt lat="45.63361" lon="6.04163">
        <ele>1770</ele>
        <time>2014-02-11T21:25:01.1Z</time>
      </trkpt>
      <trkpt lat="45.63361" lon="6.04163">
        <ele>1770</ele>
        <time>2014-02-11T21:25:04.1Z</time>
      </trkpt>
      <trkpt lat="45.63361" lon="6.04163">
        <ele>1770</ele>
        <time>2014-02-11T21:25:06.1Z</time>
      </trkpt>
      <trkpt lat="45.63361" lon="6.04163">
        <ele>1770</ele>
        <time>2014-02-11T21:25:09.1Z</time>
      </trkpt>
      <trkpt lat="45.63361" lon="6.04162">
        <ele>1769</ele>
        <time>2014-02-11T21:25:11.1Z</time>
      </trkpt>
      <trkpt lat="45.63361" lon="6.04162">
        <ele>1769</ele>
        <time>2014-02-11T21:25:14.1Z</time>
      </trkpt>
      <trkpt lat="45.63361" lon="6.04162">
        <ele>1769</ele>
        <time>2014-02-11T21:25:16.1Z</time>
      </trkpt>
      <trkpt lat="45.63361" lon="6.04162">
        <ele>1769</ele>
        <time>2014-02-11T21:25:19.1Z</time>
      </trkpt>
      <trkpt lat="45.6336" lon="6.04162">
        <ele>1769</ele>
        <time>2014-02-11T21:25:22.1Z</time>
      </trkpt>
      <trkpt lat="45.6336" lon="6.04162">
        <ele>1769</ele>
        <time>2014-02-11T21:25:24.1Z</time>
      </trkpt>
      <trkpt lat="45.6336" lon="6.04163">
        <ele>1769</ele>
        <time>2014-02-11T21:25:27.1Z</time>
      </trkpt>
      <trkpt lat="45.63361" lon="6.04163">
        <ele>1769</ele>
        <time>2014-02-11T21:25:29.1Z</time>
      </trkpt>
      <trkpt lat="45.63361" lon="6.04163">
        <ele>1769</ele>
        <time>2014-02-11T21:25:31.1Z</time>
      </trkpt>
      <trkpt lat="45.63361" lon="6.04164">
        <ele>1769</ele>
        <time>2014-02-11T21:25:34.1Z</time>
      </trkpt>
      <trkpt lat="45.63361" lon="6.04165">
        <ele>1770</ele>
        <time>2014-02-11T21:25:37.1Z</time>
      </trkpt>
      <trkpt lat="45.63362" lon="6.04167">
        <ele>1770</ele>
        <time>2014-02-11T21:25:39.1Z</time>
      </trkpt>
      <trkpt lat="45.63363" lon="6.0417">
        <ele>1769</ele>
        <time>2014-02-11T21:25:42.1Z</time>
      </trkpt>
      <trkpt lat="45.63364" lon="6.0417">
        <ele>1769</ele>
        <time>2014-02-11T21:25:44.1Z</time>
      </trkpt>
      <trkpt lat="45.63364" lon="6.0417">
        <ele>1769</ele>
        <time>2014-02-11T21:25:46.1Z</time>
      </trkpt>
      <trkpt lat="45.63364" lon="6.0417">
        <ele>1769</ele>
        <time>2014-02-11T21:25:49.1Z</time>
      </trkpt>
      <trkpt lat="45.63364" lon="6.0417">
        <ele>1769</ele>
        <time>2014-02-11T21:25:51.1Z</time>
      </trkpt>
      <trkpt lat="45.63364" lon="6.04171">
        <ele>1769</ele>
        <time>2014-02-11T21:25:54.1Z</time>
      </trkpt>
      <trkpt lat="45.63364" lon="6.04171">
        <ele>1769</ele>
        <time>2014-02-11T21:25:56.1Z</time>
      </trkpt>
      <trkpt lat="45.63363" lon="6.04172">
        <ele>1769</ele>
        <time>2014-02-11T21:25:59.1Z</time>
      </trkpt>
      <trkpt lat="45.63362" lon="6.04176">
        <ele>1769</ele>
        <time>2014-02-11T21:26:02.1Z</time>
      </trkpt>
      <trkpt lat="45.63363" lon="6.04188">
        <ele>1769</ele>
        <time>2014-02-11T21:26:05.1Z</time>
      </trkpt>
      <trkpt lat="45.63364" lon="6.04203">
        <ele>1767</ele>
        <time>2014-02-11T21:26:07.1Z</time>
      </trkpt>
      <trkpt lat="45.63372" lon="6.04234">
        <ele>1764</ele>
        <time>2014-02-11T21:26:10.1Z</time>
      </trkpt>
      <trkpt lat="45.63382" lon="6.04268">
        <ele>1759</ele>
        <time>2014-02-11T21:26:13.1Z</time>
      </trkpt>
      <trkpt lat="45.63392" lon="6.04305">
        <ele>1754</ele>
        <time>2014-02-11T21:26:16.1Z</time>
      </trkpt>
      <trkpt lat="45.63395" lon="6.04333">
        <ele>1752</ele>
        <time>2014-02-11T21:26:18.1Z</time>
      </trkpt>
      <trkpt lat="45.63394" lon="6.04375">
        <ele>1747</ele>
        <time>2014-02-11T21:26:21.1Z</time>
      </trkpt>
      <trkpt lat="45.6339" lon="6.04414">
        <ele>1745</ele>
        <time>2014-02-11T21:26:24.1Z</time>
      </trkpt>
      <trkpt lat="45.63378" lon="6.04451">
        <ele>1741</ele>
        <time>2014-02-11T21:26:27.1Z</time>
      </trkpt>
      <trkpt lat="45.63363" lon="6.04486">
        <ele>1737</ele>
        <time>2014-02-11T21:26:30.1Z</time>
      </trkpt>
      <trkpt lat="45.63366" lon="6.04533">
        <ele>1731</ele>
        <time>2014-02-11T21:26:33.1Z</time>
      </trkpt>
      <trkpt lat="45.63375" lon="6.04579">
        <ele>1726</ele>
        <time>2014-02-11T21:26:36.1Z</time>
      </trkpt>
      <trkpt lat="45.63385" lon="6.0462">
        <ele>1719</ele>
        <time>2014-02-11T21:26:39.1Z</time>
      </trkpt>
      <trkpt lat="45.63395" lon="6.04651">
        <ele>1714</ele>
        <time>2014-02-11T21:26:42.1Z</time>
      </trkpt>
      <trkpt lat="45.63401" lon="6.04662">
        <ele>1711</ele>
        <time>2014-02-11T21:26:45.1Z</time>
      </trkpt>
      <trkpt lat="45.63402" lon="6.04663">
        <ele>1708</ele>
        <time>2014-02-11T21:26:48.1Z</time>
      </trkpt>
      <trkpt lat="45.63402" lon="6.04662">
        <ele>1706</ele>
        <time>2014-02-11T21:26:50.1Z</time>
      </trkpt>
      <trkpt lat="45.63403" lon="6.04662">
        <ele>1705</ele>
        <time>2014-02-11T21:26:53.1Z</time>
      </trkpt>
      <trkpt lat="45.63403" lon="6.04662">
        <ele>1705</ele>
        <time>2014-02-11T21:26:56.1Z</time>
      </trkpt>
      <trkpt lat="45.63403" lon="6.04661">
        <ele>1704</ele>
        <time>2014-02-11T21:26:59.1Z</time>
      </trkpt>
      <trkpt lat="45.63403" lon="6.0466">
        <ele>1704</ele>
        <time>2014-02-11T21:27:02.1Z</time>
      </trkpt>
      <trkpt lat="45.63403" lon="6.0466">
        <ele>1704</ele>
        <time>2014-02-11T21:27:05.1Z</time>
      </trkpt>
      <trkpt lat="45.63403" lon="6.04659">
        <ele>1704</ele>
        <time>2014-02-11T21:27:08.1Z</time>
      </trkpt>
      <trkpt lat="45.63403" lon="6.04659">
        <ele>1704</ele>
        <time>2014-02-11T21:27:11.1Z</time>
      </trkpt>
      <trkpt lat="45.63402" lon="6.04661">
        <ele>1704</ele>
        <time>2014-02-11T21:27:14.1Z</time>
      </trkpt>
      <trkpt lat="45.63403" lon="6.04668">
        <ele>1704</ele>
        <time>2014-02-11T21:27:16.1Z</time>
      </trkpt>
      <trkpt lat="45.63412" lon="6.04683">
        <ele>1703</ele>
        <time>2014-02-11T21:27:19.1Z</time>
      </trkpt>
      <trkpt lat="45.63419" lon="6.04699">
        <ele>1702</ele>
        <time>2014-02-11T21:27:21.1Z</time>
      </trkpt>
      <trkpt lat="45.63436" lon="6.04731">
        <ele>1697</ele>
        <time>2014-02-11T21:27:24.1Z</time>
      </trkpt>
      <trkpt lat="45.63447" lon="6.04756">
        <ele>1694</ele>
        <time>2014-02-11T21:27:26.1Z</time>
      </trkpt>
      <trkpt lat="45.63461" lon="6.04782">
        <ele>1690</ele>
        <time>2014-02-11T21:27:28.1Z</time>
      </trkpt>
      <trkpt lat="45.63479" lon="6.04814">
        <ele>1686</ele>
        <time>2014-02-11T21:27:31.1Z</time>
      </trkpt>
      <trkpt lat="45.63486" lon="6.04833">
        <ele>1683</ele>
        <time>2014-02-11T21:27:33.1Z</time>
      </trkpt>
      <trkpt lat="45.63488" lon="6.04839">
        <ele>1680</ele>
        <time>2014-02-11T21:27:36.1Z</time>
      </trkpt>
      <trkpt lat="45.63488" lon="6.0484">
        <ele>1678</ele>
        <time>2014-02-11T21:27:39.1Z</time>
      </trkpt>
      <trkpt lat="45.63488" lon="6.0484">
        <ele>1677</ele>
        <time>2014-02-11T21:27:41.1Z</time>
      </trkpt>
      <trkpt lat="45.63489" lon="6.0484">
        <ele>1676</ele>
        <time>2014-02-11T21:27:45.1Z</time>
      </trkpt>
      <trkpt lat="45.63489" lon="6.0484">
        <ele>1676</ele>
        <time>2014-02-11T21:27:47.1Z</time>
      </trkpt>
      <trkpt lat="45.63491" lon="6.04841">
        <ele>1676</ele>
        <time>2014-02-11T21:27:50.1Z</time>
      </trkpt>
      <trkpt lat="45.63492" lon="6.04842">
        <ele>1676</ele>
        <time>2014-02-11T21:27:53.1Z</time>
      </trkpt>
      <trkpt lat="45.63495" lon="6.04844">
        <ele>1676</ele>
        <time>2014-02-11T21:27:55.1Z</time>
      </trkpt>
      <trkpt lat="45.63502" lon="6.04854">
        <ele>1676</ele>
        <time>2014-02-11T21:27:58.1Z</time>
      </trkpt>
      <trkpt lat="45.63511" lon="6.04862">
        <ele>1675</ele>
        <time>2014-02-11T21:28:00.1Z</time>
      </trkpt>
      <trkpt lat="45.63523" lon="6.04886">
        <ele>1673</ele>
        <time>2014-02-11T21:28:03.1Z</time>
      </trkpt>
      <trkpt lat="45.63535" lon="6.04907">
        <ele>1670</ele>
        <time>2014-02-11T21:28:05.1Z</time>
      </trkpt>
      <trkpt lat="45.63553" lon="6.04941">
        <ele>1666</ele>
        <time>2014-02-11T21:28:08.1Z</time>
      </trkpt>
      <trkpt lat="45.63569" lon="6.0498">
        <ele>1662</ele>
        <time>2014-02-11T21:28:11.1Z</time>
      </trkpt>
      <trkpt lat="45.6359" lon="6.0501">
        <ele>1656</ele>
        <time>2014-02-11T21:28:14.1Z</time>
      </trkpt>
      <trkpt lat="45.63617" lon="6.05032">
        <ele>1650</ele>
        <time>2014-02-11T21:28:17.1Z</time>
      </trkpt>
      <trkpt lat="45.63633" lon="6.05049">
        <ele>1648</ele>
        <time>2014-02-11T21:28:19.1Z</time>
      </trkpt>
      <trkpt lat="45.63649" lon="6.05066">
        <ele>1644</ele>
        <time>2014-02-11T21:28:21.1Z</time>
      </trkpt>
      <trkpt lat="45.63671" lon="6.05094">
        <ele>1640</ele>
        <time>2014-02-11T21:28:24.1Z</time>
      </trkpt>
      <trkpt lat="45.63694" lon="6.05127">
        <ele>1634</ele>
        <time>2014-02-11T21:28:27.1Z</time>
      </trkpt>
      <trkpt lat="45.63715" lon="6.05158">
        <ele>1628</ele>
        <time>2014-02-11T21:28:30.1Z</time>
      </trkpt>
      <trkpt lat="45.63731" lon="6.0517">
        <ele>1625</ele>
        <time>2014-02-11T21:28:32.1Z</time>
      </trkpt>
      <trkpt lat="45.63758" lon="6.05172">
        <ele>1622</ele>
        <time>2014-02-11T21:28:35.1Z</time>
      </trkpt>
      <trkpt lat="45.63776" lon="6.05171">
        <ele>1618</ele>
        <time>2014-02-11T21:28:38.1Z</time>
      </trkpt>
      <trkpt lat="45.63786" lon="6.05171">
        <ele>1616</ele>
        <time>2014-02-11T21:28:40.1Z</time>
      </trkpt>
      <trkpt lat="45.63791" lon="6.05171">
        <ele>1615</ele>
        <time>2014-02-11T21:28:42.1Z</time>
      </trkpt>
      <trkpt lat="45.63792" lon="6.05172">
        <ele>1614</ele>
        <time>2014-02-11T21:28:45.1Z</time>
      </trkpt>
      <trkpt lat="45.63793" lon="6.05173">
        <ele>1613</ele>
        <time>2014-02-11T21:28:47.1Z</time>
      </trkpt>
      <trkpt lat="45.63793" lon="6.05173">
        <ele>1612</ele>
        <time>2014-02-11T21:28:50.1Z</time>
      </trkpt>
      <trkpt lat="45.63794" lon="6.05173">
        <ele>1612</ele>
        <time>2014-02-11T21:28:53.1Z</time>
      </trkpt>
      <trkpt lat="45.63794" lon="6.05174">
        <ele>1612</ele>
        <time>2014-02-11T21:28:55.1Z</time>
      </trkpt>
      <trkpt lat="45.63795" lon="6.05174">
        <ele>1612</ele>
        <time>2014-02-11T21:28:57.1Z</time>
      </trkpt>
      <trkpt lat="45.638" lon="6.05176">
        <ele>1612</ele>
        <time>2014-02-11T21:29:00.1Z</time>
      </trkpt>
      <trkpt lat="45.63807" lon="6.05179">
        <ele>1612</ele>
        <time>2014-02-11T21:29:02.1Z</time>
      </trkpt>
      <trkpt lat="45.63819" lon="6.05186">
        <ele>1610</ele>
        <time>2014-02-11T21:29:05.1Z</time>
      </trkpt>
      <trkpt lat="45.63829" lon="6.05191">
        <ele>1609</ele>
        <time>2014-02-11T21:29:07.1Z</time>
      </trkpt>
      <trkpt lat="45.63845" lon="6.05198">
        <ele>1607</ele>
        <time>2014-02-11T21:29:10.1Z</time>
      </trkpt>
      <trkpt lat="45.63865" lon="6.05203">
        <ele>1605</ele>
        <time>2014-02-11T21:29:13.1Z</time>
      </trkpt>
      <trkpt lat="45.63878" lon="6.05208">
        <ele>1604</ele>
        <time>2014-02-11T21:29:15.1Z</time>
      </trkpt>
      <trkpt lat="45.63906" lon="6.05213">
        <ele>1599</ele>
        <time>2014-02-11T21:29:18.1Z</time>
      </trkpt>
      <trkpt lat="45.63929" lon="6.05213">
        <ele>1595</ele>
        <time>2014-02-11T21:29:20.1Z</time>
      </trkpt>
      <trkpt lat="45.63956" lon="6.05212">
        <ele>1589</ele>
        <time>2014-02-11T21:29:22.1Z</time>
      </trkpt>
      <trkpt lat="45.63995" lon="6.05231">
        <ele>1582</ele>
        <time>2014-02-11T21:29:25.1Z</time>
      </trkpt>
      <trkpt lat="45.64009" lon="6.05257">
        <ele>1574</ele>
        <time>2014-02-11T21:29:27.1Z</time>
      </trkpt>
      <trkpt lat="45.6402" lon="6.05285">
        <ele>1567</ele>
        <time>2014-02-11T21:29:29.1Z</time>
      </trkpt>
      <trkpt lat="45.64032" lon="6.05313">
        <ele>1562</ele>
        <time>2014-02-11T21:29:31.1Z</time>
      </trkpt>
      <trkpt lat="45.64053" lon="6.05357">
        <ele>1553</ele>
        <time>2014-02-11T21:29:34.1Z</time>
      </trkpt>
      <trkpt lat="45.64079" lon="6.05396">
        <ele>1547</ele>
        <time>2014-02-11T21:29:37.1Z</time>
      </trkpt>
      <trkpt lat="45.64109" lon="6.05432">
        <ele>1539</ele>
        <time>2014-02-11T21:29:40.1Z</time>
      </trkpt>
      <trkpt lat="45.64127" lon="6.05455">
        <ele>1533</ele>
        <time>2014-02-11T21:29:42.1Z</time>
      </trkpt>
      <trkpt lat="45.64139" lon="6.05476">
        <ele>1529</ele>
        <time>2014-02-11T21:29:44.1Z</time>
      </trkpt>
      <trkpt lat="45.6416" lon="6.05505">
        <ele>1526</ele>
        <time>2014-02-11T21:29:47.1Z</time>
      </trkpt>
      <trkpt lat="45.64181" lon="6.05533">
        <ele>1522</ele>
        <time>2014-02-11T21:29:50.1Z</time>
      </trkpt>
      <trkpt lat="45.64194" lon="6.05546">
        <ele>1519</ele>
        <time>2014-02-11T21:29:52.1Z</time>
      </trkpt>
      <trkpt lat="45.64211" lon="6.05568">
        <ele>1516</ele>
        <time>2014-02-11T21:29:55.1Z</time>
      </trkpt>
      <trkpt lat="45.64217" lon="6.05583">
        <ele>1515</ele>
        <time>2014-02-11T21:29:57.1Z</time>
      </trkpt>
      <trkpt lat="45.64222" lon="6.05598">
        <ele>1514</ele>
        <time>2014-02-11T21:29:59.1Z</time>
      </trkpt>
      <trkpt lat="45.64226" lon="6.05614">
        <ele>1514</ele>
        <time>2014-02-11T21:30:02.1Z</time>
      </trkpt>
      <trkpt lat="45.6423" lon="6.05625">
        <ele>1513</ele>
        <time>2014-02-11T21:30:05.1Z</time>
      </trkpt>
      <trkpt lat="45.64233" lon="6.05629">
        <ele>1513</ele>
        <time>2014-02-11T21:30:07.1Z</time>
      </trkpt>
      <trkpt lat="45.64237" lon="6.05634">
        <ele>1513</ele>
        <time>2014-02-11T21:30:10.1Z</time>
      </trkpt>
      <trkpt lat="45.64239" lon="6.05637">
        <ele>1513</ele>
        <time>2014-02-11T21:30:13.1Z</time>
      </trkpt>
      <trkpt lat="45.64239" lon="6.05638">
        <ele>1513</ele>
        <time>2014-02-11T21:30:15.1Z</time>
      </trkpt>
      <trkpt lat="45.6424" lon="6.0564">
        <ele>1513</ele>
        <time>2014-02-11T21:30:17.1Z</time>
      </trkpt>
      <trkpt lat="45.64241" lon="6.05643">
        <ele>1513</ele>
        <time>2014-02-11T21:30:20.1Z</time>
      </trkpt>
      <trkpt lat="45.64243" lon="6.05645">
        <ele>1513</ele>
        <time>2014-02-11T21:30:23.1Z</time>
      </trkpt>
      <trkpt lat="45.64244" lon="6.05646">
        <ele>1514</ele>
        <time>2014-02-11T21:30:25.1Z</time>
      </trkpt>
      <trkpt lat="45.64245" lon="6.05648">
        <ele>1515</ele>
        <time>2014-02-11T21:30:28.1Z</time>
      </trkpt>
      <trkpt lat="45.64246" lon="6.05649">
        <ele>1515</ele>
        <time>2014-02-11T21:30:30.1Z</time>
      </trkpt>
      <trkpt lat="45.64248" lon="6.05651">
        <ele>1515</ele>
        <time>2014-02-11T21:30:32.1Z</time>
      </trkpt>
      <trkpt lat="45.64247" lon="6.05652">
        <ele>1515</ele>
        <time>2014-02-11T21:30:35.1Z</time>
      </trkpt>
      <trkpt lat="45.64247" lon="6.05653">
        <ele>1515</ele>
        <time>2014-02-11T21:30:37.1Z</time>
      </trkpt>
      <trkpt lat="45.64248" lon="6.05655">
        <ele>1515</ele>
        <time>2014-02-11T21:30:39.1Z</time>
      </trkpt>
      <trkpt lat="45.64249" lon="6.05658">
        <ele>1516</ele>
        <time>2014-02-11T21:30:42.1Z</time>
      </trkpt>
      <trkpt lat="45.64249" lon="6.0566">
        <ele>1516</ele>
        <time>2014-02-11T21:30:44.1Z</time>
      </trkpt>
      <trkpt lat="45.64249" lon="6.05662">
        <ele>1517</ele>
        <time>2014-02-11T21:30:46.1Z</time>
      </trkpt>
      <trkpt lat="45.6425" lon="6.05668">
        <ele>1517</ele>
        <time>2014-02-11T21:30:49.1Z</time>
      </trkpt>
      <trkpt lat="45.64251" lon="6.05674">
        <ele>1517</ele>
        <time>2014-02-11T21:30:51.1Z</time>
      </trkpt>
      <trkpt lat="45.64251" lon="6.05678">
        <ele>1517</ele>
        <time>2014-02-11T21:30:53.1Z</time>
      </trkpt>
      <trkpt lat="45.64252" lon="6.05685">
        <ele>1517</ele>
        <time>2014-02-11T21:30:56.1Z</time>
      </trkpt>
      <trkpt lat="45.64252" lon="6.05687">
        <ele>1518</ele>
        <time>2014-02-11T21:30:58.1Z</time>
      </trkpt>
      <trkpt lat="45.64252" lon="6.05688">
        <ele>1518</ele>
        <time>2014-02-11T21:31:01.1Z</time>
      </trkpt>
      <trkpt lat="45.64252" lon="6.05689">
        <ele>1518</ele>
        <time>2014-02-11T21:31:03.1Z</time>
      </trkpt>
      <trkpt lat="45.64252" lon="6.05691">
        <ele>1518</ele>
        <time>2014-02-11T21:31:05.1Z</time>
      </trkpt>
      <trkpt lat="45.64252" lon="6.05693">
        <ele>1518</ele>
        <time>2014-02-11T21:31:08.1Z</time>
      </trkpt>
      <trkpt lat="45.64252" lon="6.05693">
        <ele>1518</ele>
        <time>2014-02-11T21:31:11.1Z</time>
      </trkpt>
      <trkpt lat="45.64252" lon="6.05693">
        <ele>1518</ele>
        <time>2014-02-11T21:31:13.1Z</time>
      </trkpt>
      <trkpt lat="45.64251" lon="6.05695">
        <ele>1518</ele>
        <time>2014-02-11T21:31:16.1Z</time>
      </trkpt>
      <trkpt lat="45.64251" lon="6.05695">
        <ele>1518</ele>
        <time>2014-02-11T21:31:19.1Z</time>
      </trkpt>
      <trkpt lat="45.64251" lon="6.05696">
        <ele>1518</ele>
        <time>2014-02-11T21:31:21.1Z</time>
      </trkpt>
      <trkpt lat="45.64251" lon="6.05696">
        <ele>1517</ele>
        <time>2014-02-11T21:31:24.1Z</time>
      </trkpt>
      <trkpt lat="45.6425" lon="6.05696">
        <ele>1518</ele>
        <time>2014-02-11T21:31:27.1Z</time>
      </trkpt>
      <trkpt lat="45.64249" lon="6.05697">
        <ele>1518</ele>
        <time>2014-02-11T21:31:31.1Z</time>
      </trkpt>
      <trkpt lat="45.64249" lon="6.05698">
        <ele>1518</ele>
        <time>2014-02-11T21:31:34.1Z</time>
      </trkpt>
      <trkpt lat="45.64249" lon="6.05698">
        <ele>1518</ele>
        <time>2014-02-11T21:31:36.1Z</time>
      </trkpt>
      <trkpt lat="45.64249" lon="6.05698">
        <ele>1518</ele>
        <time>2014-02-11T21:31:38.1Z</time>
      </trkpt>
      <trkpt lat="45.64249" lon="6.05699">
        <ele>1518</ele>
        <time>2014-02-11T21:31:41.1Z</time>
      </trkpt>
      <trkpt lat="45.64249" lon="6.05699">
        <ele>1518</ele>
        <time>2014-02-11T21:31:44.1Z</time>
      </trkpt>
      <trkpt lat="45.64249" lon="6.057">
        <ele>1517</ele>
        <time>2014-02-11T21:31:47.1Z</time>
      </trkpt>
      <trkpt lat="45.64248" lon="6.05701">
        <ele>1517</ele>
        <time>2014-02-11T21:31:50.1Z</time>
      </trkpt>
      <trkpt lat="45.64248" lon="6.05701">
        <ele>1517</ele>
        <time>2014-02-11T21:31:52.1Z</time>
      </trkpt>
      <trkpt lat="45.64248" lon="6.05702">
        <ele>1518</ele>
        <time>2014-02-11T21:31:56.1Z</time>
      </trkpt>
      <trkpt lat="45.64248" lon="6.05704">
        <ele>1517</ele>
        <time>2014-02-11T21:31:59.1Z</time>
      </trkpt>
      <trkpt lat="45.64248" lon="6.05715">
        <ele>1517</ele>
        <time>2014-02-11T21:32:02.1Z</time>
      </trkpt>
      <trkpt lat="45.64253" lon="6.05729">
        <ele>1516</ele>
        <time>2014-02-11T21:32:05.1Z</time>
      </trkpt>
      <trkpt lat="45.64256" lon="6.05739">
        <ele>1514</ele>
        <time>2014-02-11T21:32:07.1Z</time>
      </trkpt>
      <trkpt lat="45.64263" lon="6.05752">
        <ele>1512</ele>
        <time>2014-02-11T21:32:10.1Z</time>
      </trkpt>
      <trkpt lat="45.6427" lon="6.05767">
        <ele>1508</ele>
        <time>2014-02-11T21:32:13.1Z</time>
      </trkpt>
      <trkpt lat="45.64273" lon="6.05778">
        <ele>1506</ele>
        <time>2014-02-11T21:32:15.1Z</time>
      </trkpt>
      <trkpt lat="45.64281" lon="6.05795">
        <ele>1502</ele>
        <time>2014-02-11T21:32:18.1Z</time>
      </trkpt>
      <trkpt lat="45.6429" lon="6.05813">
        <ele>1499</ele>
        <time>2014-02-11T21:32:21.1Z</time>
      </trkpt>
      <trkpt lat="45.64297" lon="6.05826">
        <ele>1497</ele>
        <time>2014-02-11T21:32:23.1Z</time>
      </trkpt>
      <trkpt lat="45.64306" lon="6.05844">
        <ele>1492</ele>
        <time>2014-02-11T21:32:26.1Z</time>
      </trkpt>
      <trkpt lat="45.6432" lon="6.05863">
        <ele>1486</ele>
        <time>2014-02-11T21:32:29.1Z</time>
      </trkpt>
      <trkpt lat="45.64329" lon="6.05882">
        <ele>1482</ele>
        <time>2014-02-11T21:32:31.1Z</time>
      </trkpt>
      <trkpt lat="45.64339" lon="6.05905">
        <ele>1477</ele>
        <time>2014-02-11T21:32:33.1Z</time>
      </trkpt>
      <trkpt lat="45.64359" lon="6.05948">
        <ele>1472</ele>
        <time>2014-02-11T21:32:36.1Z</time>
      </trkpt>
      <trkpt lat="45.64375" lon="6.05992">
        <ele>1462</ele>
        <time>2014-02-11T21:32:39.1Z</time>
      </trkpt>
      <trkpt lat="45.6437" lon="6.06012">
        <ele>1456</ele>
        <time>2014-02-11T21:32:41.1Z</time>
      </trkpt>
      <trkpt lat="45.6436" lon="6.06027">
        <ele>1452</ele>
        <time>2014-02-11T21:32:43.1Z</time>
      </trkpt>
      <trkpt lat="45.64348" lon="6.06045">
        <ele>1447</ele>
        <time>2014-02-11T21:32:46.1Z</time>
      </trkpt>
      <trkpt lat="45.64339" lon="6.06058">
        <ele>1446</ele>
        <time>2014-02-11T21:32:49.1Z</time>
      </trkpt>
      <trkpt lat="45.64335" lon="6.06064">
        <ele>1445</ele>
        <time>2014-02-11T21:32:51.1Z</time>
      </trkpt>
      <trkpt lat="45.64332" lon="6.06068">
        <ele>1445</ele>
        <time>2014-02-11T21:32:54.1Z</time>
      </trkpt>
      <trkpt lat="45.64331" lon="6.06068">
        <ele>1445</ele>
        <time>2014-02-11T21:32:57.1Z</time>
      </trkpt>
      <trkpt lat="45.64331" lon="6.06068">
        <ele>1445</ele>
        <time>2014-02-11T21:33:00.1Z</time>
      </trkpt>
      <trkpt lat="45.64331" lon="6.06068">
        <ele>1443</ele>
        <time>2014-02-11T21:33:03.1Z</time>
      </trkpt>
      <trkpt lat="45.6433" lon="6.06068">
        <ele>1443</ele>
        <time>2014-02-11T21:33:06.1Z</time>
      </trkpt>
      <trkpt lat="45.6433" lon="6.06068">
        <ele>1442</ele>
        <time>2014-02-11T21:33:08.1Z</time>
      </trkpt>
      <trkpt lat="45.64329" lon="6.06068">
        <ele>1443</ele>
        <time>2014-02-11T21:33:12.1Z</time>
      </trkpt>
      <trkpt lat="45.64329" lon="6.06068">
        <ele>1443</ele>
        <time>2014-02-11T21:33:14.1Z</time>
      </trkpt>
      <trkpt lat="45.64328" lon="6.06068">
        <ele>1446</ele>
        <time>2014-02-11T21:33:17.1Z</time>
      </trkpt>
      <trkpt lat="45.64328" lon="6.06069">
        <ele>1446</ele>
        <time>2014-02-11T21:33:20.1Z</time>
      </trkpt>
      <trkpt lat="45.64327" lon="6.06069">
        <ele>1446</ele>
        <time>2014-02-11T21:33:22.1Z</time>
      </trkpt>
      <trkpt lat="45.64327" lon="6.06069">
        <ele>1445</ele>
        <time>2014-02-11T21:33:24.1Z</time>
      </trkpt>
      <trkpt lat="45.64325" lon="6.06071">
        <ele>1445</ele>
        <time>2014-02-11T21:33:27.1Z</time>
      </trkpt>
      <trkpt lat="45.64324" lon="6.06073">
        <ele>1445</ele>
        <time>2014-02-11T21:33:29.1Z</time>
      </trkpt>
      <trkpt lat="45.64322" lon="6.06076">
        <ele>1445</ele>
        <time>2014-02-11T21:33:32.1Z</time>
      </trkpt>
      <trkpt lat="45.6432" lon="6.06077">
        <ele>1445</ele>
        <time>2014-02-11T21:33:34.1Z</time>
      </trkpt>
      <trkpt lat="45.64317" lon="6.0608">
        <ele>1445</ele>
        <time>2014-02-11T21:33:37.1Z</time>
      </trkpt>
      <trkpt lat="45.64316" lon="6.06082">
        <ele>1445</ele>
        <time>2014-02-11T21:33:39.1Z</time>
      </trkpt>
      <trkpt lat="45.64314" lon="6.06084">
        <ele>1445</ele>
        <time>2014-02-11T21:33:41.1Z</time>
      </trkpt>
      <trkpt lat="45.64312" lon="6.06087">
        <ele>1445</ele>
        <time>2014-02-11T21:33:43.1Z</time>
      </trkpt>
      <trkpt lat="45.64309" lon="6.0609">
        <ele>1445</ele>
        <time>2014-02-11T21:33:46.1Z</time>
      </trkpt>
      <trkpt lat="45.64308" lon="6.06092">
        <ele>1445</ele>
        <time>2014-02-11T21:33:48.1Z</time>
      </trkpt>
      <trkpt lat="45.64305" lon="6.06095">
        <ele>1445</ele>
        <time>2014-02-11T21:33:51.1Z</time>
      </trkpt>
      <trkpt lat="45.64303" lon="6.06097">
        <ele>1445</ele>
        <time>2014-02-11T21:33:53.1Z</time>
      </trkpt>
      <trkpt lat="45.64301" lon="6.06099">
        <ele>1445</ele>
        <time>2014-02-11T21:33:55.1Z</time>
      </trkpt>
      <trkpt lat="45.64299" lon="6.06102">
        <ele>1445</ele>
        <time>2014-02-11T21:33:58.1Z</time>
      </trkpt>
      <trkpt lat="45.64296" lon="6.06105">
        <ele>1445</ele>
        <time>2014-02-11T21:34:01.1Z</time>
      </trkpt>
      <trkpt lat="45.64295" lon="6.06108">
        <ele>1445</ele>
        <time>2014-02-11T21:34:03.1Z</time>
      </trkpt>
      <trkpt lat="45.64293" lon="6.06111">
        <ele>1446</ele>
        <time>2014-02-11T21:34:06.1Z</time>
      </trkpt>
      <trkpt lat="45.64291" lon="6.06114">
        <ele>1446</ele>
        <time>2014-02-11T21:34:08.1Z</time>
      </trkpt>
      <trkpt lat="45.6429" lon="6.06117">
        <ele>1446</ele>
        <time>2014-02-11T21:34:11.1Z</time>
      </trkpt>
      <trkpt lat="45.64288" lon="6.06122">
        <ele>1446</ele>
        <time>2014-02-11T21:34:14.1Z</time>
      </trkpt>
      <trkpt lat="45.64286" lon="6.06126">
        <ele>1446</ele>
        <time>2014-02-11T21:34:17.1Z</time>
      </trkpt>
      <trkpt lat="45.64285" lon="6.0613">
        <ele>1446</ele>
        <time>2014-02-11T21:34:20.1Z</time>
      </trkpt>
      <trkpt lat="45.64283" lon="6.06133">
        <ele>1446</ele>
        <time>2014-02-11T21:34:22.1Z</time>
      </trkpt>
      <trkpt lat="45.64283" lon="6.06135">
        <ele>1446</ele>
        <time>2014-02-11T21:34:25.1Z</time>
      </trkpt>
      <trkpt lat="45.64283" lon="6.06136">
        <ele>1446</ele>
        <time>2014-02-11T21:34:28.1Z</time>
      </trkpt>
      <trkpt lat="45.64283" lon="6.06136">
        <ele>1446</ele>
        <time>2014-02-11T21:34:30.1Z</time>
      </trkpt>
      <trkpt lat="45.64282" lon="6.06136">
        <ele>1446</ele>
        <time>2014-02-11T21:34:33.1Z</time>
      </trkpt>
      <trkpt lat="45.64282" lon="6.06136">
        <ele>1443</ele>
        <time>2014-02-11T21:34:34.1Z</time>
      </trkpt>
    </trkseg>
  </trk>
</gpx>